Terminal Aerodrome Forecast
Issued by NWS

Home | Current Version | Previous Version | Graphics & Text | Print | Product List | Glossary On
Versions: 1 2 3 4 5 6 7 8 9 10 11 12 13 14 15 16 17
378
FTUS43 KBIS 011217 CCA
TAFDIK
TAF COR
KDIK 011217Z 0112/0212 31009KT 2SM BR OVC005
     FM011400 30007KT P6SM OVC008
     FM011700 29004KT P6SM OVC015
     FM020100 VRB04KT P6SM OVC008=

USA.gov is the U.S. government's official web portal to all federal, state and local government web resources and services.